Sacramento Executive Airport
KSAC : rendu visible

Aérodrome :











RETROUVEZ-NOUS SUR...

 
LOGIN :

S'inscrire | Disclaimer

   EN    FR    IT 

 









Légende :    VFR   VFR Marginal   IFR   IFR Intensif   IFR Très Intensif
Visi : 
Plafond : 
>= 8 km
>= 3000ft
5 à 8 km
1000 à 3000 ft
1500m à 5 km
500 à 1000 ft
800 à 1500m
200 à 500 ft
< 800m
< 200 ft
Symboles :   Orages  Brouillard  Fortes neiges  Fortes précipitations  Vent > 20 kt






- Altitude de l'aérodrome : 24 ft


KSAC - Sacramento Executive

DERNIER METAR :
  • 200353Z 16003KT 10SM BKN085 13/09 A2957 RMK AO2 SLP011 T01330089

METARs EXPIRÉS :
  • 200253Z 21008KT 10SM CLR 14/09 A2958 RMK AO2 SLP015 T01390094 56019
  • 200153Z 21007KT 10SM CLR 16/08 A2959 RMK AO2 SLP021 T01560083

TAF KSAC
Valide du 20 à 00h jusqu'au 21 à 00h UTC


192350Z 2000/2024 VRB05KT P6SM SCT060
FM200600 34008KT P6SM SCT060
FM201200 33014KT P6SM SKC WS020/02040KT
FM201600 34018G25KT P6SM SKC



MET'MAP, la Météo Aéronautique d'un coup d'oeil ! - Copyright ORBIFLY Décembre 2007 - Disclaimer

ORBIFLY MET'MAP TEAM :

Programmation & Développement : Alexandra Zaïnal
Conception & Développement : Baudouin d'Aumeries
Co-Programmation & Développement : Marc-Olivier Méhu
Soutien technique & logistique : Manuel Goepfert

Contact : metmap@orbifly.com




SOURCES & CREDITS :

   NOAA       Earth
Advisory